createdAt,value
2023-03-17T00:04:49.420Z,88.23
2023-03-17T00:09:51.170Z,88.68
2023-03-17T00:14:52.805Z,89.26
2023-03-17T00:19:54.722Z,90.18
2023-03-17T00:24:56.742Z,91.08
2023-03-17T00:29:58.356Z,90.60
2023-03-17T00:35:00.312Z,91.99
2023-03-17T00:40:02.260Z,91.09
2023-03-17T00:45:04.719Z,92.68
2023-03-17T00:50:10.153Z,92.13
2023-03-17T00:55:12.744Z,94.32
2023-03-17T01:00:34.698Z,95.82
2023-03-17T01:05:36.247Z,94.53
2023-03-17T01:10:38.111Z,95.45
2023-03-17T01:15:42.679Z,95.49
2023-03-17T01:20:44.560Z,95.83
2023-03-17T01:25:46.626Z,94.62
2023-03-17T01:30:48.621Z,95.38
2023-03-17T01:35:50.880Z,95.68
2023-03-17T01:40:52.718Z,95.94
2023-03-17T01:46:22.133Z,96.18
2023-03-17T01:51:35.841Z,95.35
2023-03-17T01:56:40.852Z,94.31
2023-03-17T02:01:47.392Z,94.48
2023-03-17T02:06:58.050Z,94.73
2023-03-17T02:12:02.357Z,94.89
2023-03-17T02:17:04.139Z,94.80
2023-03-17T02:22:05.982Z,94.39
2023-03-17T02:27:17.902Z,94.35
2023-03-17T02:32:20.802Z,94.01
2023-03-17T02:37:22.523Z,94.18
2023-03-17T02:42:24.570Z,94.98
2023-03-17T02:47:26.063Z,94.36
2023-03-17T02:52:27.628Z,94.25
2023-03-17T02:57:29.361Z,95.83
2023-03-17T03:02:30.913Z,96.87
2023-03-17T03:07:32.989Z,95.45
2023-03-17T03:12:34.822Z,96.73
2023-03-17T03:17:36.539Z,95.26
2023-03-17T03:22:38.146Z,95.55
2023-03-17T03:27:40.082Z,95.63
2023-03-17T03:32:41.741Z,97.24
2023-03-17T03:37:43.399Z,97.36
2023-03-17T03:42:45.088Z,96.99
2023-03-17T03:47:46.861Z,96.55
2023-03-17T03:52:48.849Z,96.38
2023-03-17T03:57:50.840Z,95.99
2023-03-17T04:02:52.953Z,95.46
2023-03-17T04:07:55.312Z,94.64
2023-03-17T04:12:57.129Z,95.81
2023-03-17T04:17:58.986Z,95.22
2023-03-17T04:23:00.814Z,95.62
2023-03-17T04:28:02.427Z,97.62
2023-03-17T04:33:03.983Z,97.10
2023-03-17T04:38:05.579Z,97.75
2023-03-17T04:43:07.272Z,98.52
2023-03-17T04:48:08.788Z,98.07
2023-03-17T04:53:10.294Z,98.26
2023-03-17T04:58:21.081Z,98.75
2023-03-17T05:03:30.646Z,98.57
2023-03-17T05:08:32.177Z,97.52
2023-03-17T05:13:34.089Z,97.98
2023-03-17T05:18:43.765Z,97.10
2023-03-17T05:23:45.573Z,97.30
2023-03-17T05:28:47.604Z,98.17
2023-03-17T05:33:49.448Z,96.63
2023-03-17T05:38:51.460Z,99.28
2023-03-17T05:43:53.329Z,98.28
2023-03-17T05:48:55.157Z,97.47
2023-03-17T05:53:56.717Z,98.72
2023-03-17T05:58:58.355Z,98.55
2023-03-17T06:03:59.857Z,97.14
2023-03-17T06:09:01.766Z,96.63
2023-03-17T06:14:03.534Z,96.72
2023-03-17T06:19:05.039Z,95.94
2023-03-17T06:24:07.571Z,95.67
2023-03-17T06:29:09.406Z,95.05
2023-03-17T06:34:10.962Z,94.29
2023-03-17T06:39:13.836Z,94.35
2023-03-17T06:44:15.382Z,94.30
2023-03-17T06:49:16.988Z,93.15
2023-03-17T06:54:18.638Z,90.49
2023-03-17T06:59:21.942Z,89.23
2023-03-17T07:04:23.579Z,89.02
2023-03-17T07:09:25.464Z,89.10
2023-03-17T07:14:27.382Z,87.56
2023-03-17T07:19:29.790Z,88.95
2023-03-17T07:24:32.015Z,88.11
2023-03-17T07:29:53.860Z,87.42
2023-03-17T07:34:55.697Z,86.34
2023-03-17T07:39:57.370Z,85.87
2023-03-17T07:44:58.971Z,84.79
2023-03-17T07:50:00.492Z,84.87
2023-03-17T07:55:02.037Z,82.71
2023-03-17T08:00:05.506Z,81.36
2023-03-17T08:05:15.397Z,81.45
2023-03-17T08:10:17.102Z,81.62
2023-03-17T08:15:19.265Z,79.68
2023-03-17T08:20:21.184Z,79.25
2023-03-17T08:25:22.774Z,78.89
2023-03-17T08:30:24.405Z,77.76
2023-03-17T08:35:25.995Z,73.55
2023-03-17T08:40:27.628Z,74.12
2023-03-17T08:45:29.651Z,70.56
2023-03-17T08:50:31.912Z,69.78
2023-03-17T08:55:33.710Z,68.67
2023-03-17T09:00:35.231Z,65.66
2023-03-17T09:05:38.469Z,64.98
2023-03-17T09:10:42.559Z,65.83
2023-03-17T09:15:46.121Z,64.26
2023-03-17T09:20:47.864Z,63.36
2023-03-17T09:25:49.566Z,62.36
2023-03-17T09:30:51.427Z,61.36
2023-03-17T09:35:53.411Z,62.06
2023-03-17T09:41:13.883Z,64.23
2023-03-17T09:46:39.637Z,62.60
2023-03-17T09:51:44.874Z,60.33
2023-03-17T09:56:55.000Z,61.42
2023-03-17T10:01:57.167Z,61.08
2023-03-17T10:07:04.974Z,60.79
2023-03-17T10:12:14.378Z,61.92
2023-03-17T10:17:21.750Z,60.37
2023-03-17T10:22:41.629Z,59.99
2023-03-17T10:27:48.695Z,59.54
2023-03-17T10:32:52.570Z,60.04
2023-03-17T10:38:07.938Z,58.50
2023-03-17T10:43:20.011Z,60.87
2023-03-17T10:48:21.652Z,62.31
2023-03-17T10:53:25.176Z,62.40
2023-03-17T10:58:38.103Z,61.68
2023-03-17T11:03:40.134Z,61.66
2023-03-17T11:08:55.027Z,61.06
2023-03-17T11:14:14.919Z,59.94
2023-03-17T11:19:17.840Z,58.97
2023-03-17T11:24:28.300Z,58.34
2023-03-17T11:29:35.628Z,59.17
2023-03-17T11:34:52.398Z,58.49
2023-03-17T11:40:15.114Z,57.37
2023-03-17T11:45:23.650Z,57.54
2023-03-17T11:50:54.698Z,56.49
2023-03-17T11:56:18.271Z,56.04
2023-03-17T12:01:26.605Z,57.47
2023-03-17T12:06:32.442Z,59.32
2023-03-17T12:11:38.631Z,57.46
2023-03-17T12:16:47.238Z,56.85
2023-03-17T12:22:01.377Z,59.77
2023-03-17T12:27:05.878Z,58.84
2023-03-17T12:32:16.233Z,58.52
2023-03-17T12:37:19.493Z,59.30
2023-03-17T12:42:50.927Z,59.18
2023-03-17T12:48:13.501Z,59.56
2023-03-17T12:53:20.927Z,59.92
2023-03-17T12:58:45.932Z,61.16
2023-03-17T13:03:58.461Z,60.59
2023-03-17T13:09:33.277Z,61.02
2023-03-17T13:14:44.905Z,60.92
2023-03-17T13:20:07.928Z,58.73
2023-03-17T13:25:38.367Z,58.46
2023-03-17T13:30:40.262Z,59.40
2023-03-17T13:36:06.078Z,59.17
2023-03-17T13:41:13.255Z,59.44
2023-03-17T13:46:26.740Z,60.41
2023-03-17T13:51:33.477Z,59.29
2023-03-17T13:56:41.031Z,63.05
2023-03-17T14:02:23.075Z,59.45
2023-03-17T14:07:31.867Z,61.54
2023-03-17T14:12:44.017Z,60.29
2023-03-17T14:18:15.341Z,61.18
2023-03-17T14:23:18.111Z,60.66
2023-03-17T14:28:26.540Z,61.90
2023-03-17T14:33:30.596Z,61.88
2023-03-17T14:38:35.728Z,63.98
2023-03-17T14:43:37.293Z,62.92
2023-03-17T14:48:41.769Z,64.66
2023-03-17T14:53:44.196Z,64.55
2023-03-17T14:58:48.821Z,66.10
2023-03-17T15:03:56.701Z,65.13
2023-03-17T15:08:59.552Z,67.67
2023-03-17T15:14:30.105Z,69.40
2023-03-17T15:19:43.382Z,70.20
2023-03-17T15:24:45.055Z,69.76
2023-03-17T15:29:46.571Z,69.33
2023-03-17T15:34:49.904Z,71.22
2023-03-17T15:39:52.152Z,71.40
2023-03-17T15:44:54.323Z,72.50
2023-03-17T15:49:59.427Z,71.68
2023-03-17T15:55:00.945Z,70.24
2023-03-17T16:00:02.653Z,70.44
2023-03-17T16:05:19.452Z,67.57
2023-03-17T16:10:33.382Z,67.08
2023-03-17T16:15:39.251Z,68.23
2023-03-17T16:20:43.464Z,69.68
2023-03-17T16:25:46.250Z,72.83
2023-03-17T16:30:49.906Z,73.03
2023-03-17T16:35:52.810Z,73.65
2023-03-17T16:40:58.589Z,76.67
2023-03-17T16:46:02.369Z,77.06
2023-03-17T16:51:05.158Z,75.06
2023-03-17T16:56:15.519Z,73.87
2023-03-17T17:01:21.503Z,75.59
2023-03-17T17:06:24.270Z,83.57
2023-03-17T17:11:25.887Z,84.92
2023-03-17T17:16:33.492Z,83.06
2023-03-17T17:21:35.203Z,88.17
2023-03-17T17:26:36.731Z,93.62
2023-03-17T17:31:38.681Z,100.00
2023-03-17T17:36:40.718Z,100.00
2023-03-17T17:41:42.372Z,100.00
2023-03-17T17:46:43.982Z,100.00
2023-03-17T17:51:45.759Z,100.00
2023-03-17T17:56:47.727Z,100.00
2023-03-17T18:01:49.472Z,100.00
2023-03-17T18:06:51.820Z,100.00
2023-03-17T18:11:53.717Z,100.00
2023-03-17T18:16:55.382Z,100.00
2023-03-17T18:21:57.042Z,100.00
2023-03-17T18:26:58.563Z,100.00
2023-03-17T18:32:00.254Z,100.00
2023-03-17T18:37:02.106Z,100.00
2023-03-17T18:42:03.791Z,100.00
2023-03-17T18:47:05.720Z,100.00
2023-03-17T18:52:07.267Z,100.00
2023-03-17T18:57:08.851Z,100.00
2023-03-17T19:02:10.370Z,100.00
2023-03-17T19:07:13.230Z,100.00
2023-03-17T19:12:14.834Z,100.00
2023-03-17T19:17:16.404Z,100.00
2023-03-17T19:22:18.251Z,100.00
2023-03-17T19:27:19.820Z,100.00
2023-03-17T19:32:21.354Z,99.72
2023-03-17T19:37:22.865Z,99.28
2023-03-17T19:42:24.512Z,100.00
2023-03-17T19:47:26.090Z,100.00
2023-03-17T19:52:27.652Z,100.00
2023-03-17T19:57:29.306Z,100.00
2023-03-17T20:02:30.862Z,100.00
2023-03-17T20:07:32.654Z,100.00
2023-03-17T20:12:34.855Z,100.00
2023-03-17T20:17:36.535Z,100.00
2023-03-17T20:22:38.467Z,100.00
2023-03-17T20:27:40.231Z,100.00
2023-03-17T20:32:41.864Z,100.00
2023-03-17T20:37:43.459Z,100.00
2023-03-17T20:42:45.105Z,100.00
2023-03-17T20:47:46.986Z,100.00
2023-03-17T20:52:49.684Z,100.00
2023-03-17T20:57:51.183Z,100.00
2023-03-17T21:02:52.766Z,100.00
2023-03-17T21:07:54.404Z,100.00
2023-03-17T21:12:55.895Z,100.00
2023-03-17T21:17:57.429Z,100.00
2023-03-17T21:22:59.043Z,100.00
2023-03-17T21:28:01.731Z,100.00
2023-03-17T21:33:04.692Z,100.00
2023-03-17T21:38:07.960Z,100.00
2023-03-17T21:43:10.059Z,100.00
2023-03-17T21:48:11.641Z,100.00
2023-03-17T21:53:13.874Z,100.00
2023-03-17T21:58:16.696Z,100.00
2023-03-17T22:03:19.694Z,100.00
2023-03-17T22:08:21.730Z,100.00
2023-03-17T22:13:24.899Z,100.00
2023-03-17T22:18:26.445Z,100.00
2023-03-17T22:23:27.990Z,100.00
2023-03-17T22:28:29.621Z,100.00
2023-03-17T22:33:31.252Z,100.00
2023-03-17T22:38:32.822Z,100.00
2023-03-17T22:43:35.500Z,100.00
2023-03-17T22:48:37.315Z,100.00
2023-03-17T22:53:40.770Z,100.00
2023-03-17T22:58:44.441Z,100.00
2023-03-17T23:03:47.383Z,100.00
2023-03-17T23:08:51.541Z,100.00
2023-03-17T23:13:54.791Z,100.00
2023-03-17T23:18:56.927Z,100.00
2023-03-17T23:24:00.184Z,100.00
2023-03-17T23:29:03.340Z,100.00
2023-03-17T23:34:07.062Z,100.00
2023-03-17T23:39:09.770Z,100.00
2023-03-17T23:44:12.771Z,100.00
2023-03-17T23:49:14.405Z,100.00
2023-03-17T23:54:16.074Z,100.00
2023-03-17T23:59:17.948Z,100.00
